createdAt,value
2022-07-29T00:02:48.552Z,23.68
2022-07-29T00:05:53.045Z,23.68
2022-07-29T00:08:55.433Z,23.65
2022-07-29T00:12:01.135Z,23.65
2022-07-29T00:15:05.204Z,23.68
2022-07-29T00:18:07.740Z,23.69
2022-07-29T00:21:09.859Z,23.65
2022-07-29T00:24:12.501Z,23.69
2022-07-29T00:27:14.855Z,23.67
2022-07-29T00:30:17.307Z,23.71
2022-07-29T00:33:19.426Z,23.70
2022-07-29T00:36:22.626Z,23.67
2022-07-29T00:39:24.734Z,23.67
2022-07-29T00:42:29.261Z,23.63
2022-07-29T00:45:31.575Z,23.65
2022-07-29T00:48:34.053Z,23.62
2022-07-29T00:51:39.952Z,23.65
2022-07-29T00:54:44.042Z,23.60
2022-07-29T00:57:47.215Z,23.63
2022-07-29T01:00:49.752Z,23.60
2022-07-29T01:03:52.266Z,23.61
2022-07-29T01:06:55.623Z,23.62
2022-07-29T01:09:58.066Z,23.59
2022-07-29T01:13:02.271Z,23.56
2022-07-29T01:16:11.301Z,23.59
2022-07-29T01:19:33.914Z,23.56
2022-07-29T01:22:35.971Z,23.52
2022-07-29T01:26:07.687Z,23.55
2022-07-29T01:29:42.282Z,23.50
2022-07-29T01:32:51.026Z,23.51
2022-07-29T01:35:53.325Z,23.50
2022-07-29T01:39:05.218Z,23.45
2022-07-29T01:42:49.541Z,23.47
2022-07-29T01:45:58.743Z,23.41
2022-07-29T01:49:12.535Z,23.44
2022-07-29T01:52:22.792Z,23.34
2022-07-29T01:55:30.498Z,23.28
2022-07-29T01:58:33.687Z,23.25
2022-07-29T02:01:38.233Z,23.24
2022-07-29T02:04:42.187Z,23.21
2022-07-29T02:07:47.342Z,23.17
2022-07-29T02:10:52.713Z,23.14
2022-07-29T02:13:57.502Z,23.14
2022-07-29T02:17:02.643Z,23.14
2022-07-29T02:20:06.238Z,23.15
2022-07-29T02:23:11.542Z,23.10
2022-07-29T02:26:13.773Z,23.02
2022-07-29T02:29:17.712Z,22.97
2022-07-29T02:32:22.220Z,22.95
2022-07-29T02:35:25.588Z,22.92
2022-07-29T02:38:48.835Z,22.88
2022-07-29T02:41:53.855Z,22.85
2022-07-29T02:44:56.678Z,22.81
2022-07-29T02:48:01.801Z,22.78
2022-07-29T02:51:43.928Z,22.76
2022-07-29T02:55:06.698Z,22.75
2022-07-29T02:58:23.732Z,22.71
2022-07-29T03:01:31.307Z,22.66
2022-07-29T03:04:35.321Z,22.63
2022-07-29T03:07:39.484Z,22.61
2022-07-29T03:10:45.453Z,22.58
2022-07-29T03:13:48.348Z,22.60
2022-07-29T03:16:51.841Z,22.58
2022-07-29T03:19:55.723Z,22.52
2022-07-29T03:22:58.010Z,22.52
2022-07-29T03:26:00.461Z,22.52
2022-07-29T03:29:02.616Z,22.48
2022-07-29T03:32:07.368Z,22.50
2022-07-29T03:35:10.207Z,22.50
2022-07-29T03:38:12.705Z,22.49
2022-07-29T03:41:16.154Z,22.53
2022-07-29T03:44:20.551Z,22.55
2022-07-29T03:47:43.477Z,22.60
2022-07-29T03:50:51.588Z,22.64
2022-07-29T03:53:54.392Z,22.72
2022-07-29T03:57:02.035Z,22.80
2022-07-29T04:00:06.383Z,22.86
2022-07-29T04:03:12.133Z,22.93
2022-07-29T04:06:17.420Z,22.98
2022-07-29T04:09:19.934Z,23.03
2022-07-29T04:12:22.141Z,23.15
2022-07-29T04:15:24.890Z,23.22
2022-07-29T04:18:27.062Z,23.06
2022-07-29T04:21:29.437Z,23.00
2022-07-29T04:24:31.546Z,23.03
2022-07-29T04:27:33.966Z,23.14
2022-07-29T04:30:38.052Z,23.17
2022-07-29T04:33:40.920Z,23.26
2022-07-29T04:36:43.019Z,23.38
2022-07-29T04:39:45.440Z,23.63
2022-07-29T04:42:47.917Z,23.94
2022-07-29T04:45:51.919Z,24.72
2022-07-29T04:48:54.150Z,25.24
2022-07-29T04:51:56.602Z,25.90
2022-07-29T04:54:58.745Z,27.16
2022-07-29T04:58:01.499Z,28.23
2022-07-29T05:01:05.057Z,29.47
2022-07-29T05:04:07.557Z,31.37
2022-07-29T05:07:09.689Z,33.25
2022-07-29T05:10:12.686Z,35.03
2022-07-29T05:13:14.999Z,36.32
2022-07-29T05:16:17.416Z,36.53
2022-07-29T05:19:19.642Z,36.48
2022-07-29T05:22:22.408Z,37.00
2022-07-29T05:25:43.454Z,37.42
2022-07-29T05:28:47.000Z,37.23
2022-07-29T05:31:49.187Z,37.80
2022-07-29T05:34:51.953Z,37.91
2022-07-29T05:37:54.178Z,38.20
2022-07-29T05:40:59.322Z,38.49
2022-07-29T05:44:01.498Z,38.41
2022-07-29T05:47:03.924Z,38.73
2022-07-29T05:50:06.728Z,38.83
2022-07-29T05:53:19.436Z,38.97
2022-07-29T05:56:22.612Z,39.19
2022-07-29T05:59:30.085Z,39.05
2022-07-29T06:02:32.727Z,38.62
2022-07-29T06:05:35.254Z,39.24
2022-07-29T06:08:37.876Z,39.39
2022-07-29T06:11:40.473Z,38.74
2022-07-29T06:14:42.611Z,37.83
2022-07-29T06:18:00.020Z,36.07
2022-07-29T06:21:09.537Z,35.05
2022-07-29T06:24:13.690Z,35.83
2022-07-29T06:27:17.202Z,37.13
2022-07-29T06:30:19.617Z,38.36
2022-07-29T06:33:21.749Z,39.34
2022-07-29T06:36:24.380Z,39.92
2022-07-29T06:39:27.394Z,39.98
2022-07-29T06:42:29.856Z,40.77
2022-07-29T06:45:35.378Z,40.82
2022-07-29T06:48:38.209Z,41.61
2022-07-29T06:51:40.396Z,41.76
2022-07-29T06:54:48.895Z,42.24
2022-07-29T06:57:51.368Z,43.16
2022-07-29T07:00:53.930Z,44.09
2022-07-29T07:03:56.248Z,42.53
2022-07-29T07:06:58.880Z,43.13
2022-07-29T07:10:01.047Z,43.16
2022-07-29T07:13:04.222Z,42.95
2022-07-29T07:16:06.483Z,43.26
2022-07-29T07:19:09.001Z,43.78
2022-07-29T07:22:11.126Z,42.99
2022-07-29T07:25:15.349Z,41.18
2022-07-29T07:28:17.599Z,41.39
2022-07-29T07:31:20.244Z,42.44
2022-07-29T07:34:28.144Z,42.50
2022-07-29T07:37:31.966Z,43.12
2022-07-29T07:40:34.142Z,43.62
2022-07-29T07:43:36.503Z,44.32
2022-07-29T07:46:38.619Z,43.32
2022-07-29T07:49:42.103Z,44.16
2022-07-29T07:52:55.913Z,43.49
2022-07-29T07:56:13.693Z,43.23
2022-07-29T07:59:16.770Z,42.68
2022-07-29T08:02:19.268Z,41.99
2022-07-29T08:05:21.823Z,41.19
2022-07-29T08:08:23.934Z,39.08
2022-07-29T08:11:26.380Z,38.58
2022-07-29T08:14:31.208Z,37.94
2022-07-29T08:17:35.579Z,37.13
2022-07-29T08:20:39.254Z,36.89
2022-07-29T08:23:51.536Z,36.32
2022-07-29T08:26:55.381Z,35.98
2022-07-29T08:29:58.401Z,35.26
2022-07-29T08:33:00.624Z,35.32
2022-07-29T08:36:03.858Z,35.11
2022-07-29T08:39:06.606Z,34.41
2022-07-29T08:42:10.542Z,34.12
2022-07-29T08:45:13.225Z,33.77
2022-07-29T08:48:21.315Z,33.57
2022-07-29T08:51:25.700Z,33.61
2022-07-29T08:54:28.810Z,33.47
2022-07-29T08:57:32.599Z,33.74
2022-07-29T09:00:45.774Z,34.04
2022-07-29T09:03:48.774Z,34.29
2022-07-29T09:06:55.883Z,34.12
2022-07-29T09:09:58.379Z,34.20
2022-07-29T09:13:00.783Z,34.14
2022-07-29T09:16:08.581Z,34.07
2022-07-29T09:19:45.394Z,33.98
2022-07-29T09:22:51.785Z,34.56
2022-07-29T09:25:54.252Z,34.53
2022-07-29T09:28:56.660Z,34.24
2022-07-29T09:31:59.101Z,33.89
2022-07-29T09:35:22.116Z,33.82
2022-07-29T09:38:24.571Z,33.59
2022-07-29T09:41:28.028Z,33.68
2022-07-29T09:44:49.095Z,33.83
2022-07-29T09:47:51.630Z,34.14
2022-07-29T09:50:54.811Z,34.08
2022-07-29T09:53:57.120Z,34.19
2022-07-29T09:56:59.500Z,34.38
2022-07-29T10:00:07.728Z,33.97
2022-07-29T10:03:15.110Z,33.86
2022-07-29T10:06:17.640Z,34.08
2022-07-29T10:09:19.759Z,33.84
2022-07-29T10:12:25.474Z,33.86
2022-07-29T10:15:30.276Z,33.89
2022-07-29T10:18:33.495Z,33.98
2022-07-29T10:21:36.705Z,34.00
2022-07-29T10:24:39.644Z,34.30
2022-07-29T10:27:41.822Z,34.56
2022-07-29T10:30:46.241Z,34.44
2022-07-29T10:34:03.439Z,34.51
2022-07-29T10:37:25.750Z,34.68
2022-07-29T10:41:22.247Z,34.93
2022-07-29T10:44:28.058Z,35.16
2022-07-29T10:47:30.981Z,35.35
2022-07-29T10:50:58.113Z,35.31
2022-07-29T10:54:05.214Z,35.20
2022-07-29T10:57:40.507Z,34.48
2022-07-29T11:00:48.039Z,34.26
2022-07-29T11:03:57.225Z,34.02
2022-07-29T11:06:59.385Z,34.26
2022-07-29T11:10:15.264Z,34.76
2022-07-29T11:13:46.488Z,34.95
2022-07-29T11:17:06.430Z,35.30
2022-07-29T11:20:33.704Z,35.75
2022-07-29T11:23:37.888Z,35.48
2022-07-29T11:26:40.198Z,35.76
2022-07-29T11:29:53.495Z,35.71
2022-07-29T11:32:55.762Z,35.91
2022-07-29T11:36:16.859Z,35.84
2022-07-29T11:39:36.933Z,35.87
2022-07-29T11:42:42.114Z,35.14
2022-07-29T11:45:48.011Z,34.90
2022-07-29T11:48:50.732Z,34.89
2022-07-29T11:51:57.057Z,35.13
2022-07-29T11:55:09.605Z,35.09
2022-07-29T11:58:13.116Z,35.34
2022-07-29T12:01:18.253Z,35.13
2022-07-29T12:04:20.846Z,35.34
2022-07-29T12:07:32.658Z,35.47
2022-07-29T12:10:37.989Z,35.30
2022-07-29T12:13:40.820Z,35.13
2022-07-29T12:16:43.303Z,34.99
2022-07-29T12:19:46.229Z,34.73
2022-07-29T12:22:50.232Z,34.47
2022-07-29T12:25:53.075Z,34.80
2022-07-29T12:28:56.686Z,34.97
2022-07-29T12:31:59.425Z,34.68
2022-07-29T12:35:17.770Z,34.59
2022-07-29T12:38:20.527Z,34.99
2022-07-29T12:41:23.147Z,35.05
2022-07-29T12:44:26.375Z,35.19
2022-07-29T12:47:28.950Z,34.98
2022-07-29T12:50:32.892Z,34.79
2022-07-29T12:53:36.777Z,34.95
2022-07-29T12:56:44.113Z,35.04
2022-07-29T13:00:08.867Z,34.78
2022-07-29T13:03:10.990Z,34.35
2022-07-29T13:06:41.393Z,34.47
2022-07-29T13:09:48.504Z,34.42
2022-07-29T13:13:03.276Z,34.30
2022-07-29T13:16:08.973Z,34.24
2022-07-29T13:19:12.679Z,34.22
2022-07-29T13:22:22.805Z,34.31
2022-07-29T13:25:27.643Z,34.40
2022-07-29T13:28:29.942Z,34.60
2022-07-29T13:31:32.458Z,34.38
2022-07-29T13:34:34.570Z,34.15
2022-07-29T13:37:39.481Z,34.09
2022-07-29T13:40:42.726Z,33.76
2022-07-29T13:43:45.104Z,33.79
2022-07-29T13:46:47.207Z,33.97
2022-07-29T13:49:49.872Z,34.07
2022-07-29T13:52:52.278Z,34.14
2022-07-29T13:55:55.189Z,34.17
2022-07-29T13:58:58.119Z,34.11
2022-07-29T14:02:01.133Z,33.59
2022-07-29T14:05:08.254Z,33.16
2022-07-29T14:08:10.777Z,33.13
2022-07-29T14:11:13.267Z,33.16
2022-07-29T14:14:15.377Z,33.25
2022-07-29T14:17:17.941Z,33.29
2022-07-29T14:20:20.130Z,33.19
2022-07-29T14:23:22.506Z,32.91
2022-07-29T14:26:25.206Z,32.82
2022-07-29T14:29:37.483Z,32.69
2022-07-29T14:32:40.874Z,32.73
2022-07-29T14:35:43.332Z,32.75
2022-07-29T14:38:45.724Z,32.86
2022-07-29T14:41:48.162Z,32.97
2022-07-29T14:44:50.310Z,32.87
2022-07-29T14:47:57.217Z,32.98
2022-07-29T14:51:04.402Z,33.07
2022-07-29T14:54:07.463Z,33.26
2022-07-29T14:57:09.678Z,33.11
2022-07-29T15:00:12.586Z,33.13
2022-07-29T15:03:22.989Z,33.17
2022-07-29T15:06:28.027Z,33.06
2022-07-29T15:09:30.242Z,32.90
2022-07-29T15:12:33.326Z,32.68
2022-07-29T15:15:35.515Z,32.67
2022-07-29T15:18:39.218Z,32.68
2022-07-29T15:21:48.847Z,32.55
2022-07-29T15:24:51.691Z,32.53
2022-07-29T15:27:56.629Z,32.58
2022-07-29T15:31:01.611Z,32.69
2022-07-29T15:34:06.285Z,32.68
2022-07-29T15:37:09.003Z,32.67
2022-07-29T15:40:11.752Z,32.65
2022-07-29T15:43:14.396Z,32.64
2022-07-29T15:46:38.496Z,32.79
2022-07-29T15:49:47.999Z,32.62
2022-07-29T15:52:51.839Z,32.60
2022-07-29T15:55:54.338Z,32.61
2022-07-29T15:58:56.569Z,32.60
2022-07-29T16:01:59.723Z,32.45
2022-07-29T16:05:02.182Z,32.44
2022-07-29T16:08:04.414Z,32.48
2022-07-29T16:11:06.804Z,32.60
2022-07-29T16:14:10.896Z,32.57
2022-07-29T16:17:14.247Z,32.51
2022-07-29T16:20:17.261Z,32.51
2022-07-29T16:23:19.662Z,32.53
2022-07-29T16:26:21.771Z,32.42
2022-07-29T16:29:24.224Z,32.30
2022-07-29T16:32:26.704Z,32.25
2022-07-29T16:35:39.455Z,32.19
2022-07-29T16:38:47.060Z,32.14
2022-07-29T16:41:50.083Z,32.07
2022-07-29T16:44:52.411Z,31.99
2022-07-29T16:48:00.062Z,31.87
2022-07-29T16:51:02.593Z,31.72
2022-07-29T16:54:05.109Z,31.57
2022-07-29T16:57:07.242Z,31.41
2022-07-29T17:00:10.629Z,31.21
2022-07-29T17:03:13.442Z,31.01
2022-07-29T17:06:16.095Z,30.81
2022-07-29T17:09:18.269Z,30.64
2022-07-29T17:12:20.707Z,30.50
2022-07-29T17:15:22.908Z,30.29
2022-07-29T17:18:25.331Z,30.18
2022-07-29T17:21:28.056Z,30.06
2022-07-29T17:24:30.739Z,29.90
2022-07-29T17:27:33.371Z,29.76
2022-07-29T17:30:35.751Z,29.61
2022-07-29T17:33:38.148Z,29.49
2022-07-29T17:36:40.586Z,29.39
2022-07-29T17:39:43.494Z,29.27
2022-07-29T17:42:46.152Z,29.16
2022-07-29T17:45:49.470Z,29.06
2022-07-29T17:48:54.732Z,28.96
2022-07-29T17:52:00.770Z,28.88
2022-07-29T17:55:03.826Z,28.80
2022-07-29T17:58:08.783Z,28.67
2022-07-29T18:01:11.364Z,28.58
2022-07-29T18:04:15.511Z,28.48
2022-07-29T18:07:18.513Z,28.38
2022-07-29T18:10:21.133Z,28.27
2022-07-29T18:13:23.325Z,28.17
2022-07-29T18:16:25.846Z,28.06
2022-07-29T18:19:29.563Z,27.98
2022-07-29T18:22:31.958Z,27.90
2022-07-29T18:25:34.362Z,27.83
2022-07-29T18:28:36.773Z,27.76
2022-07-29T18:31:41.057Z,27.67
2022-07-29T18:34:43.590Z,27.60
2022-07-29T18:38:00.915Z,27.49
2022-07-29T18:41:04.782Z,27.43
2022-07-29T18:44:06.935Z,27.35
2022-07-29T18:47:11.923Z,27.26
2022-07-29T18:50:14.648Z,27.24
2022-07-29T18:53:17.405Z,27.20
2022-07-29T18:56:19.698Z,27.18
2022-07-29T18:59:22.105Z,27.13
2022-07-29T19:02:24.615Z,27.11
2022-07-29T19:05:27.162Z,27.09
2022-07-29T19:08:29.284Z,27.07
2022-07-29T19:11:31.649Z,27.01
2022-07-29T19:14:33.772Z,27.01
2022-07-29T19:17:36.259Z,27.05
2022-07-29T19:20:39.072Z,27.04
2022-07-29T19:24:06.024Z,27.20
2022-07-29T19:27:03.827Z,27.45
2022-07-29T19:30:09.276Z,27.61
2022-07-29T19:33:13.861Z,27.67
2022-07-29T19:36:16.440Z,27.68
2022-07-29T19:39:18.577Z,27.72
2022-07-29T19:42:37.534Z,27.68
2022-07-29T19:45:39.719Z,27.60
2022-07-29T19:48:42.231Z,27.52
2022-07-29T19:51:44.418Z,27.47
2022-07-29T19:54:46.842Z,27.43
2022-07-29T19:57:49.597Z,27.33
2022-07-29T20:00:52.362Z,27.23
2022-07-29T20:03:54.806Z,27.19
2022-07-29T20:07:01.273Z,27.16
2022-07-29T20:10:06.374Z,27.12
2022-07-29T20:13:08.519Z,27.04
2022-07-29T20:16:11.062Z,26.96
2022-07-29T20:19:13.591Z,26.94
2022-07-29T20:22:21.032Z,26.89
2022-07-29T20:25:24.163Z,26.85
2022-07-29T20:28:26.583Z,26.81
2022-07-29T20:31:30.449Z,26.83
2022-07-29T20:34:33.110Z,26.79
2022-07-29T20:37:35.378Z,26.71
2022-07-29T20:40:58.800Z,26.66
2022-07-29T20:44:02.150Z,26.60
2022-07-29T20:47:04.757Z,26.53
2022-07-29T20:50:07.503Z,26.48
2022-07-29T20:53:09.946Z,26.47
2022-07-29T20:56:12.522Z,26.46
2022-07-29T20:59:14.998Z,26.51
2022-07-29T21:02:17.279Z,26.37
2022-07-29T21:05:19.834Z,26.36
2022-07-29T21:08:22.291Z,26.27
2022-07-29T21:11:44.529Z,26.24
2022-07-29T21:14:48.054Z,26.12
2022-07-29T21:17:52.639Z,26.03
2022-07-29T21:20:55.352Z,25.87
2022-07-29T21:23:57.787Z,25.78
2022-07-29T21:27:21.284Z,25.81
2022-07-29T21:30:24.113Z,25.75
2022-07-29T21:33:28.174Z,25.63
2022-07-29T21:39:52.823Z,25.53
2022-07-29T21:42:55.190Z,25.36
2022-07-29T21:45:59.347Z,25.36
2022-07-29T21:49:01.917Z,25.35
2022-07-29T21:52:04.958Z,25.25
2022-07-29T21:55:07.994Z,25.18
2022-07-29T21:58:15.282Z,25.04
2022-07-29T22:01:18.296Z,24.99
2022-07-29T22:04:20.979Z,24.93
2022-07-29T22:07:23.218Z,24.85
2022-07-29T22:10:26.765Z,24.94
2022-07-29T22:13:28.911Z,24.84
2022-07-29T22:16:31.417Z,24.77
2022-07-29T22:19:33.625Z,24.68
2022-07-29T22:22:36.219Z,24.59
2022-07-29T22:25:38.347Z,24.50
2022-07-29T22:28:40.844Z,24.53
2022-07-29T22:31:43.698Z,24.45
2022-07-29T22:34:46.414Z,24.39
2022-07-29T22:37:48.547Z,24.37
2022-07-29T22:40:52.297Z,24.38
2022-07-29T22:43:54.959Z,24.35
2022-07-29T22:46:58.431Z,24.39
2022-07-29T22:50:01.187Z,24.35
2022-07-29T22:53:03.965Z,24.21
2022-07-29T22:56:06.278Z,24.16
2022-07-29T22:59:08.715Z,24.27
2022-07-29T23:02:10.882Z,24.18
2022-07-29T23:05:15.637Z,24.16
2022-07-29T23:08:19.157Z,24.15
2022-07-29T23:11:21.618Z,24.13
2022-07-29T23:14:23.787Z,24.08
2022-07-29T23:17:26.226Z,24.06
2022-07-29T23:20:28.406Z,23.98
2022-07-29T23:23:32.398Z,23.89
2022-07-29T23:26:36.681Z,23.81
2022-07-29T23:29:39.293Z,23.76
2022-07-29T23:32:41.394Z,23.70
2022-07-29T23:35:43.830Z,23.63
2022-07-29T23:38:46.610Z,23.67
2022-07-29T23:41:49.056Z,23.57
2022-07-29T23:44:51.243Z,23.62
2022-07-29T23:47:53.638Z,23.53
2022-07-29T23:50:55.737Z,23.48
2022-07-29T23:53:58.208Z,23.45
2022-07-29T23:57:01.118Z,23.42
